Time;durP1;ratioP1;P1;durP2;ratioP2;P2;SDS_P1;SDS_P2;PMS_P1;PMS_P2;Temp;Humidity;BMP_temperature;BMP_pressure;BME280_temperature;BME280_humidity;BME280_pressure;Samples;Min_cycle;Max_cycle;Signal;HPM_P1;HPM_P2
2022/04/08 00:00:33;;;;;;;0.43;0.30;;;5.30;99.90;;;;;;4969150;28;20038;-76
2022/04/08 00:02:59;;;;;;;12.48;1.65;;;5.40;99.90;;;;;;4969691;28;20032;-74
2022/04/08 00:05:25;;;;;;;1.75;0.35;;;5.30;99.90;;;;;;4952203;29;20055;-75
2022/04/08 00:07:50;;;;;;;3.03;1.17;;;5.30;99.90;;;;;;4951928;28;20039;-75
2022/04/08 00:10:16;;;;;;;6.90;1.38;;;5.30;99.90;;;;;;4969812;28;20070;-75
2022/04/08 00:12:42;;;;;;;8.00;1.10;;;5.30;99.90;;;;;;4969542;28;20031;-74
2022/04/08 00:15:08;;;;;;;3.35;0.82;;;5.30;99.90;;;;;;4968902;28;20019;-73
2022/04/08 00:17:33;;;;;;;8.98;0.63;;;5.30;99.90;;;;;;4969174;28;20028;-73
2022/04/08 00:19:59;;;;;;;0.77;0.57;;;5.40;99.90;;;;;;4969307;28;20432;-74
2022/04/08 00:22:25;;;;;;;7.93;1.50;;;5.40;99.90;;;;;;4969008;28;20031;-74
2022/04/08 00:24:50;;;;;;;3.20;0.95;;;5.40;99.90;;;;;;4952043;28;20027;-75
2022/04/08 00:27:16;;;;;;;5.28;0.90;;;5.40;99.90;;;;;;4969046;28;20046;-76
2022/04/08 00:29:41;;;;;;;4.28;1.27;;;5.30;99.90;;;;;;4968484;28;20055;-74
2022/04/08 00:32:07;;;;;;;3.50;0.95;;;5.30;99.90;;;;;;4978001;28;20086;-74
2022/04/08 00:34:33;;;;;;;8.70;1.05;;;5.30;99.90;;;;;;4970920;28;20442;-74
2022/04/08 00:36:58;;;;;;;2.35;0.90;;;5.20;99.90;;;;;;4979424;28;20031;-72
2022/04/08 00:39:24;;;;;;;10.98;1.15;;;5.20;99.90;;;;;;4969036;28;20035;-71
2022/04/08 00:41:50;;;;;;;3.78;1.38;;;5.20;99.90;;;;;;4968910;28;20058;-73
2022/04/08 00:44:17;;;;;;;4.45;1.85;;;5.20;99.90;;;;;;4951421;29;20035;-72
2022/04/08 00:46:43;;;;;;;4.22;1.23;;;5.20;99.90;;;;;;4951631;28;20047;-72
2022/04/08 00:49:09;;;;;;;4.07;0.82;;;5.20;99.90;;;;;;4951216;28;20031;-72
2022/04/08 00:51:35;;;;;;;2.15;1.15;;;5.20;99.90;;;;;;4971048;28;20092;-73
2022/04/08 00:54:02;;;;;;;7.03;1.13;;;5.20;99.90;;;;;;4982982;28;20399;-75
2022/04/08 00:56:32;;;;;;;1.55;0.65;;;5.10;99.90;;;;;;4987677;28;20030;-74
2022/04/08 00:58:58;;;;;;;1.73;0.80;;;5.20;99.90;;;;;;4987851;28;20039;-74
2022/04/08 01:01:25;;;;;;;2.65;1.23;;;5.20;99.90;;;;;;4987904;28;20105;-73
2022/04/08 01:03:53;;;;;;;2.20;0.90;;;5.10;99.90;;;;;;4972256;28;20078;-74
2022/04/08 01:06:22;;;;;;;9.18;1.15;;;5.10;99.90;;;;;;4967693;28;20054;-72
2022/04/08 01:08:50;;;;;;;8.98;1.13;;;5.20;99.90;;;;;;4987976;28;20030;-72
2022/04/08 01:11:16;;;;;;;15.98;1.05;;;5.10;99.90;;;;;;4985656;28;20039;-74
2022/04/08 01:13:43;;;;;;;2.40;1.08;;;5.20;99.90;;;;;;4969020;28;20070;-74
2022/04/08 01:16:09;;;;;;;5.72;0.93;;;5.10;99.90;;;;;;4968237;28;20651;-72
2022/04/08 01:18:35;;;;;;;1.92;0.82;;;5.10;99.90;;;;;;4967939;28;20059;-70
2022/04/08 01:21:05;;;;;;;13.15;1.60;;;5.10;99.90;;;;;;4951032;29;20027;-71
2022/04/08 01:23:35;;;;;;;7.95;1.10;;;5.10;99.90;;;;;;4967775;28;20050;-70
2022/04/08 01:26:05;;;;;;;7.32;0.82;;;5.10;99.90;;;;;;4967815;28;20039;-71
2022/04/08 01:28:30;;;;;;;6.13;1.08;;;5.10;99.90;;;;;;4967855;28;20057;-72
2022/04/08 01:30:56;;;;;;;3.85;1.30;;;5.10;99.90;;;;;;4967784;28;20444;-71
2022/04/08 01:33:22;;;;;;;13.63;1.50;;;5.10;99.90;;;;;;4967882;28;20104;-71
2022/04/08 01:35:47;;;;;;;11.88;1.42;;;5.10;99.90;;;;;;4972500;28;20038;-73
2022/04/08 01:38:13;;;;;;;1.40;0.73;;;5.10;99.90;;;;;;4986881;28;20039;-71
2022/04/08 01:40:38;;;;;;;0.68;0.40;;;5.10;99.90;;;;;;4987162;28;20027;-70
2022/04/08 01:43:04;;;;;;;1.40;0.50;;;5.10;99.90;;;;;;4987129;28;20034;-72
2022/04/08 01:45:29;;;;;;;8.00;1.65;;;5.10;99.90;;;;;;4985557;28;20077;-73
2022/04/08 01:47:57;;;;;;;2.28;1.08;;;5.10;99.90;;;;;;4986629;28;20042;-72
2022/04/08 01:50:22;;;;;;;6.50;1.52;;;5.10;99.90;;;;;;4986774;28;20030;-72
2022/04/08 01:52:49;;;;;;;3.42;1.33;;;5.10;99.90;;;;;;4987048;28;20031;-71
2022/04/08 01:55:15;;;;;;;1.17;0.60;;;5.00;99.90;;;;;;4986856;28;20023;-73
2022/04/08 01:57:42;;;;;;;8.85;1.33;;;5.00;99.90;;;;;;4969534;28;20035;-73
2022/04/08 02:00:09;;;;;;;6.25;0.98;;;5.00;99.90;;;;;;4986617;28;20027;-69
2022/04/08 02:02:35;;;;;;;6.22;0.40;;;5.00;99.90;;;;;;4986656;28;20026;-70
2022/04/08 02:05:01;;;;;;;2.80;0.73;;;4.90;99.90;;;;;;4986841;28;20031;-69
2022/04/08 02:07:26;;;;;;;2.35;0.60;;;5.00;99.90;;;;;;4986493;28;20494;-70
2022/04/08 02:09:52;;;;;;;4.22;1.33;;;5.00;99.90;;;;;;4969213;28;20125;-68
2022/04/08 02:12:18;;;;;;;2.42;0.63;;;4.90;99.90;;;;;;4986875;28;20046;-71
2022/04/08 02:14:44;;;;;;;1.85;1.00;;;4.90;99.90;;;;;;4986202;28;20030;-69
2022/04/08 02:17:10;;;;;;;0.73;0.57;;;4.90;99.90;;;;;;4986878;28;20026;-70
2022/04/08 02:19:36;;;;;;;1.30;0.50;;;4.90;99.90;;;;;;4986652;28;20029;-70
2022/04/08 02:22:03;;;;;;;6.53;1.05;;;4.70;99.90;;;;;;4986091;28;20062;-71
2022/04/08 02:24:29;;;;;;;2.33;0.60;;;4.60;99.90;;;;;;4986529;28;20019;-70
2022/04/08 02:26:55;;;;;;;1.45;0.47;;;4.40;99.90;;;;;;4968851;28;20129;-71
2022/04/08 02:29:21;;;;;;;1.25;0.47;;;4.20;99.90;;;;;;4985927;28;20455;-71
2022/04/08 02:31:47;;;;;;;2.92;1.38;;;4.10;99.90;;;;;;4986625;28;20061;-70
2022/04/08 02:34:13;;;;;;;2.95;0.75;;;4.00;99.90;;;;;;4986377;28;20031;-70
2022/04/08 02:36:39;;;;;;;1.60;0.47;;;4.00;99.90;;;;;;4985967;28;20090;-72
2022/04/08 02:39:04;;;;;;;1.55;0.30;;;4.00;99.90;;;;;;4986328;28;20035;-71
2022/04/08 02:41:30;;;;;;;1.95;0.73;;;3.90;99.90;;;;;;4968819;28;20027;-70
2022/04/08 02:43:56;;;;;;;0.43;0.30;;;3.90;99.90;;;;;;4985769;28;20031;-69
2022/04/08 02:46:21;;;;;;;9.07;0.68;;;3.90;99.90;;;;;;4986190;28;20043;-71
2022/04/08 02:48:47;;;;;;;1.58;0.43;;;3.90;99.90;;;;;;4986192;28;20078;-69
2022/04/08 02:51:12;;;;;;;0.95;0.65;;;3.80;99.90;;;;;;4985817;28;20031;-72
2022/04/08 02:53:38;;;;;;;2.85;0.47;;;3.80;99.90;;;;;;4986126;28;20494;-73
2022/04/08 02:56:04;;;;;;;4.35;0.80;;;3.80;99.90;;;;;;4985890;28;20038;-69
2022/04/08 02:58:29;;;;;;;7.72;0.70;;;3.80;99.90;;;;;;4985658;28;20023;-68
2022/04/08 03:00:59;;;;;;;6.20;0.70;;;3.80;99.90;;;;;;4971354;28;20102;-69
2022/04/08 03:03:26;;;;;;;0.38;0.38;;;3.80;99.90;;;;;;4989960;28;20062;-69
2022/04/08 03:05:52;;;;;;;5.47;0.82;;;3.80;99.90;;;;;;4989956;28;20154;-72
2022/04/08 03:08:28;;;;;;;3.00;0.60;;;3.80;99.90;;;;;;4990150;28;20015;-70
2022/04/08 03:10:54;;;;;;;2.33;0.98;;;3.80;99.90;;;;;;4989900;28;20023;-69
2022/04/08 03:13:19;;;;;;;6.90;0.77;;;3.80;99.90;;;;;;4989755;28;20037;-71
2022/04/08 03:15:45;;;;;;;8.10;1.00;;;3.80;99.90;;;;;;4990159;28;20034;-71
2022/04/08 03:18:12;;;;;;;3.75;1.17;;;3.70;99.90;;;;;;4989605;28;20381;-70
2022/04/08 03:20:38;;;;;;;5.88;0.88;;;3.70;99.90;;;;;;4989838;28;20136;-71
2022/04/08 03:23:08;;;;;;;1.73;1.10;;;3.70;99.90;;;;;;4989755;28;20026;-72
2022/04/08 03:25:34;;;;;;;1.23;0.55;;;3.80;99.90;;;;;;4989374;28;20034;-71
2022/04/08 03:28:00;;;;;;;2.92;0.98;;;3.90;99.90;;;;;;4988298;28;20054;-69
2022/04/08 03:30:27;;;;;;;4.22;0.52;;;3.70;99.90;;;;;;4985751;28;20031;-69
2022/04/08 03:32:57;;;;;;;1.85;0.57;;;3.70;99.90;;;;;;4971789;28;20045;-71
2022/04/08 03:35:23;;;;;;;2.47;0.60;;;3.80;99.90;;;;;;4989768;28;20479;-70
2022/04/08 03:37:49;;;;;;;4.72;0.70;;;3.80;99.90;;;;;;4989770;28;20107;-70
2022/04/08 03:40:14;;;;;;;3.33;0.68;;;3.70;99.90;;;;;;4989146;28;20038;-70
2022/04/08 03:42:40;;;;;;;0.95;0.57;;;3.80;99.90;;;;;;4989407;28;20077;-71
2022/04/08 03:45:06;;;;;;;3.40;0.88;;;3.80;99.90;;;;;;4989284;28;20031;-72
2022/04/08 03:47:32;;;;;;;1.70;0.57;;;3.80;99.90;;;;;;4988863;28;20039;-72
2022/04/08 03:49:57;;;;;;;1.48;0.63;;;3.80;99.90;;;;;;4989399;28;20530;-70
2022/04/08 03:52:23;;;;;;;0.85;0.20;;;3.90;99.90;;;;;;4989349;28;20027;-72
2022/04/08 03:54:58;;;;;;;0.50;0.45;;;3.80;99.90;;;;;;4988812;28;20091;-72
2022/04/08 03:57:24;;;;;;;9.65;1.67;;;3.80;99.90;;;;;;4989477;28;20065;-70
2022/04/08 03:59:50;;;;;;;0.47;0.32;;;3.80;99.90;;;;;;4988926;28;20034;-69
2022/04/08 04:02:15;;;;;;;0.85;0.80;;;3.80;99.90;;;;;;4989001;28;20019;-72
2022/04/08 04:04:41;;;;;;;2.45;1.17;;;3.80;99.90;;;;;;4989044;28;20436;-70
2022/04/08 04:07:07;;;;;;;4.15;1.13;;;3.80;99.90;;;;;;4988699;28;20090;-72
2022/04/08 04:09:33;;;;;;;1.60;0.63;;;3.80;99.90;;;;;;4988682;28;20050;-71
2022/04/08 04:11:58;;;;;;;0.57;0.55;;;3.80;99.90;;;;;;4986947;28;20086;-70
2022/04/08 04:14:24;;;;;;;6.03;0.80;;;3.80;99.90;;;;;;4988542;28;20086;-72
2022/04/08 04:16:50;;;;;;;4.22;0.77;;;3.80;99.90;;;;;;4988849;28;20031;-71
2022/04/08 04:19:17;;;;;;;1.60;0.77;;;3.80;99.90;;;;;;4988896;28;20610;-71
2022/04/08 04:21:42;;;;;;;2.55;0.45;;;3.80;99.90;;;;;;4988398;28;20057;-70
2022/04/08 04:24:11;;;;;;;5.93;1.42;;;3.80;99.90;;;;;;4988587;28;20030;-72
2022/04/08 04:26:37;;;;;;;3.78;0.98;;;3.80;99.90;;;;;;4986720;28;20407;-71
2022/04/08 04:29:02;;;;;;;2.00;1.00;;;3.80;99.90;;;;;;4987903;28;20047;-72
2022/04/08 04:31:28;;;;;;;5.78;1.02;;;3.80;99.90;;;;;;4988511;28;20067;-71
2022/04/08 04:33:53;;;;;;;4.43;0.70;;;3.80;99.90;;;;;;4988664;28;20053;-72
2022/04/08 04:36:21;;;;;;;13.85;1.33;;;3.80;99.90;;;;;;4988244;28;20066;-72
2022/04/08 04:38:46;;;;;;;3.13;1.00;;;3.90;99.90;;;;;;4983888;28;20054;-71
2022/04/08 04:41:12;;;;;;;6.80;0.88;;;3.80;99.90;;;;;;4986764;28;20041;-72
2022/04/08 04:43:37;;;;;;;6.65;0.75;;;3.80;99.90;;;;;;4987574;28;20035;-71
2022/04/08 04:46:03;;;;;;;1.17;0.70;;;3.70;99.90;;;;;;4988255;28;20039;-72
2022/04/08 04:48:30;;;;;;;11.07;0.73;;;3.70;99.90;;;;;;4987928;28;20058;-70
2022/04/08 04:50:56;;;;;;;1.90;0.77;;;3.70;99.90;;;;;;4969853;28;20031;-72
2022/04/08 04:53:25;;;;;;;5.80;0.90;;;3.70;99.90;;;;;;4988112;28;20023;-72
2022/04/08 04:55:51;;;;;;;1.85;0.50;;;3.70;99.90;;;;;;4987874;28;20038;-73
2022/04/08 04:58:17;;;;;;;12.80;0.77;;;3.80;99.90;;;;;;4969156;28;20026;-72
2022/04/08 05:00:46;;;;;;;5.55;1.42;;;3.80;99.90;;;;;;4986922;28;20035;-73
2022/04/08 05:03:13;;;;;;;0.70;0.40;;;3.80;99.90;;;;;;4984448;28;20030;-72
2022/04/08 05:05:39;;;;;;;3.03;1.25;;;3.70;99.90;;;;;;4970808;28;20027;-71
2022/04/08 05:08:08;;;;;;;2.97;0.98;;;3.70;99.90;;;;;;4968436;28;20041;-73
2022/04/08 05:10:35;;;;;;;8.45;1.25;;;3.60;99.90;;;;;;4982001;28;20027;-70
2022/04/08 05:13:01;;;;;;;3.53;0.93;;;3.60;99.90;;;;;;4985744;28;20019;-70
2022/04/08 05:15:27;;;;;;;2.38;1.23;;;3.60;99.90;;;;;;4985557;28;20069;-71
2022/04/08 05:17:54;;;;;;;6.70;1.55;;;3.50;99.90;;;;;;4985969;28;20031;-69
2022/04/08 05:20:19;;;;;;;6.28;1.70;;;3.50;99.90;;;;;;4986759;28;20046;-72
2022/04/08 05:22:45;;;;;;;3.30;0.73;;;3.50;99.90;;;;;;4978626;28;20399;-70
2022/04/08 05:25:11;;;;;;;4.30;1.23;;;3.50;99.90;;;;;;4986608;28;20037;-70
2022/04/08 05:27:42;;;;;;;4.20;1.65;;;3.50;99.90;;;;;;4969190;28;20051;-68
2022/04/08 05:30:10;;;;;;;13.57;1.48;;;3.50;99.90;;;;;;4968646;28;20073;-70
2022/04/08 05:32:35;;;;;;;3.10;1.25;;;3.50;99.90;;;;;;4985817;28;20034;-69
2022/04/08 05:35:01;;;;;;;5.13;0.93;;;3.40;99.90;;;;;;4986297;28;20033;-72
2022/04/08 05:37:28;;;;;;;7.47;1.13;;;3.50;99.90;;;;;;4986531;28;20218;-71
2022/04/08 05:39:54;;;;;;;6.53;1.30;;;3.50;99.90;;;;;;4981602;28;20491;-70
2022/04/08 05:42:21;;;;;;;4.07;0.85;;;3.50;99.90;;;;;;4986666;28;20085;-70
2022/04/08 05:44:47;;;;;;;1.10;0.50;;;3.50;99.90;;;;;;4978464;28;20120;-67
2022/04/08 05:47:13;;;;;;;6.18;1.50;;;3.50;99.90;;;;;;4966937;28;20260;-68
2022/04/08 05:49:38;;;;;;;1.20;0.82;;;3.50;99.90;;;;;;4969679;28;20034;-67
2022/04/08 05:52:04;;;;;;;2.88;0.95;;;3.50;99.90;;;;;;4986369;28;20031;-68
2022/04/08 05:54:31;;;;;;;6.30;0.93;;;3.60;99.90;;;;;;4968654;28;20026;-69
2022/04/08 05:57:01;;;;;;;6.00;1.60;;;3.60;99.90;;;;;;4986567;28;20038;-71
2022/04/08 05:59:30;;;;;;;1.30;0.90;;;3.70;99.90;;;;;;4984873;28;20027;-70
2022/04/08 06:01:55;;;;;;;5.70;1.98;;;3.70;99.90;;;;;;4981665;28;20043;-69
2022/04/08 06:04:21;;;;;;;1.77;0.98;;;3.80;99.90;;;;;;4975014;28;20031;-69
2022/04/08 06:06:48;;;;;;;2.42;1.17;;;3.90;99.90;;;;;;4974343;28;20042;-69
2022/04/08 06:09:14;;;;;;;8.95;1.13;;;3.90;99.90;;;;;;4981084;28;20033;-69
2022/04/08 06:11:42;;;;;;;2.67;0.95;;;3.90;99.90;;;;;;4985092;28;20059;-70
2022/04/08 06:14:07;;;;;;;1.38;0.55;;;3.90;99.90;;;;;;4985323;28;20038;-70
2022/04/08 06:16:33;;;;;;;7.50;1.27;;;3.80;99.90;;;;;;4973298;28;20028;-68
2022/04/08 06:18:58;;;;;;;3.20;0.82;;;3.80;99.90;;;;;;4977830;28;20031;-69
2022/04/08 06:21:24;;;;;;;3.83;1.40;;;3.80;99.90;;;;;;4978762;28;20037;-72
2022/04/08 06:23:51;;;;;;;2.05;1.10;;;3.70;99.90;;;;;;4966977;28;20035;-72
2022/04/08 06:26:17;;;;;;;4.22;0.65;;;3.70;99.90;;;;;;4983019;28;20058;-70
2022/04/08 06:28:42;;;;;;;1.70;1.20;;;3.80;99.90;;;;;;4989804;28;20043;-68
2022/04/08 06:31:08;;;;;;;7.93;0.90;;;3.80;99.90;;;;;;4985559;28;20058;-68
2022/04/08 06:33:33;;;;;;;3.15;0.80;;;3.90;99.90;;;;;;4985667;28;20035;-69
2022/04/08 06:36:02;;;;;;;5.88;1.17;;;3.90;99.90;;;;;;4974512;28;20027;-68
2022/04/08 06:38:28;;;;;;;1.75;1.08;;;3.90;99.90;;;;;;4976956;28;20026;-69
2022/04/08 06:40:58;;;;;;;2.22;0.82;;;4.00;99.90;;;;;;4985378;28;20065;-70
2022/04/08 06:43:24;;;;;;;1.48;0.90;;;4.00;99.90;;;;;;4985303;28;20150;-70
2022/04/08 06:45:50;;;;;;;3.08;0.93;;;3.90;99.90;;;;;;4979961;28;20030;-71
2022/04/08 06:48:16;;;;;;;2.10;1.63;;;3.90;99.90;;;;;;4981828;28;20050;-70
2022/04/08 06:50:51;;;;;;;1.70;1.00;;;3.90;99.90;;;;;;4977757;28;20031;-71
2022/04/08 06:53:17;;;;;;;1.58;1.00;;;4.10;99.90;;;;;;4969392;28;20031;-70
2022/04/08 06:55:43;;;;;;;1.95;1.00;;;4.10;99.90;;;;;;4979252;28;20046;-70
2022/04/08 06:58:09;;;;;;;2.78;1.00;;;4.10;99.90;;;;;;4984163;28;20035;-70
2022/04/08 07:00:34;;;;;;;3.55;1.13;;;4.20;99.90;;;;;;4982839;28;20023;-70
2022/04/08 07:03:00;;;;;;;2.15;1.17;;;4.20;99.90;;;;;;4982889;28;20102;-70
2022/04/08 07:05:26;;;;;;;4.57;1.40;;;4.30;99.90;;;;;;4979008;28;20077;-73
2022/04/08 07:07:53;;;;;;;0.88;0.60;;;4.30;99.90;;;;;;4985959;28;20114;-71
2022/04/08 07:10:18;;;;;;;10.98;1.13;;;4.40;99.90;;;;;;4981515;28;20489;-72
2022/04/08 07:12:45;;;;;;;2.75;1.10;;;4.50;99.90;;;;;;4969525;28;20118;-73
2022/04/08 07:15:11;;;;;;;3.42;1.75;;;4.50;99.90;;;;;;4976973;28;20098;-73
2022/04/08 07:17:37;;;;;;;3.65;1.10;;;4.50;99.90;;;;;;4975816;28;20058;-72
2022/04/08 07:20:05;;;;;;;8.75;1.17;;;4.50;99.90;;;;;;4977768;28;20035;-71
2022/04/08 07:22:31;;;;;;;3.75;0.82;;;4.50;99.90;;;;;;4985747;28;20027;-70
2022/04/08 07:24:59;;;;;;;2.65;1.13;;;4.60;99.90;;;;;;4985188;28;20026;-73
2022/04/08 07:27:25;;;;;;;3.63;1.33;;;4.80;99.90;;;;;;4965706;28;20057;-69
2022/04/08 07:29:51;;;;;;;1.02;0.68;;;4.80;99.90;;;;;;4978929;28;20055;-74
2022/04/08 07:32:20;;;;;;;0.63;0.57;;;5.00;99.90;;;;;;4974175;28;20037;-71
2022/04/08 07:34:53;;;;;;;7.20;1.27;;;5.00;99.90;;;;;;4975841;28;20077;-73
2022/04/08 07:37:31;;;;;;;2.33;1.27;;;5.00;99.90;;;;;;4979827;28;20081;-71
2022/04/08 07:39:59;;;;;;;2.00;1.08;;;5.20;99.90;;;;;;4978153;28;20117;-72
2022/04/08 07:42:26;;;;;;;2.50;1.13;;;5.30;99.90;;;;;;4967251;28;20066;-70
2022/04/08 07:44:54;;;;;;;1.65;1.25;;;5.40;99.90;;;;;;4964139;28;20074;-72
2022/04/08 07:47:20;;;;;;;2.80;1.58;;;5.50;99.90;;;;;;4975560;28;20038;-72
2022/04/08 07:49:55;;;;;;;8.80;1.67;;;5.50;99.90;;;;;;4974792;28;20393;-72
2022/04/08 07:52:21;;;;;;;4.07;1.52;;;5.60;99.90;;;;;;4988482;28;20153;-72
2022/04/08 07:54:47;;;;;;;2.05;1.10;;;5.60;99.90;;;;;;4987512;28;20027;-70
2022/04/08 07:57:13;;;;;;;1.27;0.82;;;5.60;99.90;;;;;;4986492;28;20074;-70
2022/04/08 07:59:39;;;;;;;1.35;0.88;;;5.70;99.90;;;;;;4988095;28;20061;-71
2022/04/08 08:02:04;;;;;;;2.95;1.10;;;5.80;99.90;;;;;;4985874;28;20039;-70
2022/04/08 08:04:30;;;;;;;1.98;1.05;;;5.80;99.90;;;;;;4988269;28;20387;-70
2022/04/08 08:06:56;;;;;;;7.22;1.10;;;5.80;99.90;;;;;;4970142;28;20053;-70
2022/04/08 08:09:22;;;;;;;3.35;0.70;;;5.80;99.90;;;;;;4971109;28;20035;-72
2022/04/08 08:11:47;;;;;;;4.25;1.05;;;5.90;99.90;;;;;;4970871;28;20046;-73
2022/04/08 08:14:13;;;;;;;3.97;1.08;;;5.90;99.90;;;;;;4987591;28;20062;-71
2022/04/08 08:16:38;;;;;;;5.43;1.27;;;6.00;99.90;;;;;;4988446;28;20023;-70
2022/04/08 08:19:04;;;;;;;4.75;1.02;;;6.00;99.90;;;;;;4988702;28;20027;-72
2022/04/08 08:21:30;;;;;;;1.40;1.00;;;6.10;99.90;;;;;;4988258;28;20023;-71
2022/04/08 08:23:55;;;;;;;3.13;0.88;;;6.20;99.90;;;;;;4969955;28;20499;-72
2022/04/08 08:26:21;;;;;;;4.45;0.80;;;6.40;99.90;;;;;;4969012;28;20039;-71
2022/04/08 08:28:46;;;;;;;3.03;0.80;;;6.40;99.90;;;;;;4968308;29;20055;-72
2022/04/08 08:31:16;;;;;;;0.90;0.77;;;6.40;99.90;;;;;;4978002;28;20051;-73
2022/04/08 08:33:43;;;;;;;2.90;1.08;;;6.30;99.90;;;;;;4988330;28;20102;-75
2022/04/08 08:36:09;;;;;;;3.65;1.42;;;6.30;99.90;;;;;;4969413;28;20054;-73
2022/04/08 08:38:35;;;;;;;5.00;1.42;;;6.30;99.90;;;;;;4980985;28;20038;-74
2022/04/08 08:41:03;;;;;;;1.05;0.68;;;6.40;99.90;;;;;;4977156;28;20031;-69
2022/04/08 08:43:28;;;;;;;8.90;1.52;;;6.30;99.90;;;;;;4967971;28;20027;-72
2022/04/08 08:45:56;;;;;;;0.88;0.65;;;6.40;99.90;;;;;;4975146;28;20479;-72
2022/04/08 08:48:23;;;;;;;2.15;1.00;;;6.70;99.90;;;;;;4983201;28;20094;-73
2022/04/08 08:50:54;;;;;;;7.53;0.90;;;6.80;99.90;;;;;;4977598;28;20030;-73
2022/04/08 08:53:21;;;;;;;1.13;0.77;;;6.80;99.90;;;;;;4990054;28;20096;-71
2022/04/08 08:55:49;;;;;;;0.70;0.50;;;6.80;99.90;;;;;;4985050;28;20031;-73
2022/04/08 08:58:16;;;;;;;1.83;0.80;;;6.90;99.90;;;;;;4984928;28;20015;-74
2022/04/08 09:00:43;;;;;;;1.20;0.57;;;6.90;99.90;;;;;;4980371;28;20131;-72
2022/04/08 09:03:09;;;;;;;2.47;0.75;;;6.90;99.90;;;;;;4979077;28;20042;-74
2022/04/08 09:05:44;;;;;;;1.05;0.75;;;7.00;99.90;;;;;;4965195;28;20030;-73
2022/04/08 09:08:11;;;;;;;7.38;1.35;;;7.00;99.90;;;;;;4976019;28;20456;-74
2022/04/08 09:10:52;;;;;;;2.67;0.73;;;7.20;99.90;;;;;;4985475;28;20125;-75
2022/04/08 09:13:20;;;;;;;1.23;0.90;;;7.20;99.90;;;;;;4967660;28;20096;-72
2022/04/08 09:15:59;;;;;;;2.20;0.93;;;7.20;99.90;;;;;;4974130;28;20385;-73
2022/04/08 09:18:32;;;;;;;1.70;0.63;;;7.20;99.90;;;;;;4986387;28;20488;-74
2022/04/08 09:23:39;;;;;;;2.97;1.42;;;7.20;99.90;;;;;;2875081;26;20065;-73
2022/04/08 09:26:07;;;;;;;5.63;0.90;;;7.70;99.90;;;;;;5015539;28;20028;-71
2022/04/08 09:28:37;;;;;;;2.33;1.30;;;7.80;99.90;;;;;;5019256;28;20386;-75
2022/04/08 09:31:04;;;;;;;0.73;0.50;;;7.90;99.90;;;;;;5019549;28;20026;-73
2022/04/08 09:33:30;;;;;;;0.82;0.75;;;8.10;99.90;;;;;;5010838;28;20026;-74
2022/04/08 09:36:02;;;;;;;6.25;1.42;;;8.00;99.90;;;;;;5024748;28;20040;-74
2022/04/08 09:38:33;;;;;;;1.90;0.90;;;7.90;99.90;;;;;;4996379;28;20549;-72
2022/04/08 09:41:04;;;;;;;0.80;0.57;;;7.80;99.90;;;;;;5024897;28;20061;-72
2022/04/08 09:43:34;;;;;;;0.88;0.70;;;7.70;99.90;;;;;;5006365;28;20346;-73
2022/04/08 09:46:18;;;;;;;6.55;1.35;;;7.70;99.90;;;;;;5007409;28;20034;-74
2022/04/08 09:48:44;;;;;;;1.10;0.90;;;7.80;99.90;;;;;;5024421;28;20030;-74
2022/04/08 09:51:15;;;;;;;3.20;1.15;;;7.90;99.90;;;;;;5025303;28;20084;-74
2022/04/08 09:53:41;;;;;;;4.22;0.95;;;8.10;99.90;;;;;;5025864;28;20485;-73
2022/04/08 09:56:14;;;;;;;3.35;1.10;;;8.40;99.90;;;;;;5024361;28;20022;-73
2022/04/08 09:58:45;;;;;;;1.65;0.80;;;8.60;99.90;;;;;;4989491;28;20034;-71
2022/04/08 10:01:11;;;;;;;6.45;1.55;;;8.70;99.90;;;;;;5017168;28;20030;-73
2022/04/08 10:03:38;;;;;;;1.85;1.38;;;8.50;99.90;;;;;;5011113;28;20030;-72
2022/04/08 10:06:04;;;;;;;8.15;1.02;;;8.40;99.90;;;;;;5025338;28;20053;-73
2022/04/08 10:08:33;;;;;;;8.13;2.10;;;8.50;99.90;;;;;;5023666;28;20030;-74
2022/04/08 10:11:47;;;;;;;4.13;0.88;;;8.70;99.90;;;;;;5017472;28;20040;-72
2022/04/08 10:14:35;;;;;;;5.63;1.25;;;9.10;99.90;;;;;;4994095;28;20513;-74
2022/04/08 10:17:03;;;;;;;5.50;1.10;;;9.50;99.90;;;;;;5010247;28;20420;-73
2022/04/08 10:19:30;;;;;;;1.13;0.60;;;10.00;99.90;;;;;;5016679;28;20022;-73
2022/04/08 10:21:59;;;;;;;2.25;0.77;;;10.10;99.90;;;;;;5024180;28;20045;-75
2022/04/08 10:24:32;;;;;;;1.67;0.98;;;9.90;99.90;;;;;;5008968;28;20046;-73
2022/04/08 10:27:01;;;;;;;1.10;0.60;;;9.60;99.90;;;;;;5015254;28;20042;-73
2022/04/08 10:29:27;;;;;;;3.50;0.60;;;9.40;99.90;;;;;;5028046;28;20034;-74
2022/04/08 10:32:00;;;;;;;1.70;0.93;;;9.20;99.90;;;;;;5024677;28;20432;-73
2022/04/08 10:34:26;;;;;;;1.00;0.73;;;8.90;99.90;;;;;;5034814;28;20029;-71
2022/04/08 10:36:52;;;;;;;2.17;0.57;;;8.70;99.90;;;;;;5007412;28;20030;-73
2022/04/08 10:39:20;;;;;;;8.05;0.70;;;8.50;99.90;;;;;;5032266;28;20080;-74
2022/04/08 10:42:08;;;;;;;3.92;0.90;;;8.00;99.90;;;;;;5030954;28;20030;-72
2022/04/08 10:44:39;;;;;;;1.58;0.75;;;7.30;99.90;;;;;;5032338;28;20034;-72
2022/04/08 10:47:14;;;;;;;3.25;0.88;;;6.60;99.90;;;;;;5013312;28;20040;-71
2022/04/08 10:49:53;;;;;;;7.80;1.30;;;6.00;99.90;;;;;;5021297;28;20115;-70
2022/04/08 10:52:23;;;;;;;1.77;0.52;;;5.60;99.90;;;;;;5021806;28;20034;-69
2022/04/08 10:54:50;;;;;;;3.15;0.52;;;5.40;99.90;;;;;;5016143;28;20026;-71
2022/04/08 10:57:36;;;;;;;1.55;0.52;;;5.40;99.90;;;;;;5024043;28;20034;-68
2022/04/08 11:00:06;;;;;;;1.30;0.35;;;5.50;99.90;;;;;;5024210;28;20036;-70
2022/04/08 11:02:37;;;;;;;0.57;0.38;;;5.70;99.90;;;;;;5025833;28;20102;-70
2022/04/08 11:05:14;;;;;;;1.05;0.65;;;5.80;99.90;;;;;;5044945;28;20036;-69
2022/04/08 11:07:42;;;;;;;0.98;0.52;;;6.10;99.90;;;;;;5043968;28;20041;-70
2022/04/08 11:10:21;;;;;;;1.08;0.43;;;6.60;99.90;;;;;;5044349;28;20018;-70
2022/04/08 11:12:51;;;;;;;1.88;0.50;;;7.20;99.90;;;;;;5037063;28;20046;-70
2022/04/08 11:15:19;;;;;;;0.52;0.50;;;7.80;99.90;;;;;;5024421;28;20058;-70
2022/04/08 11:17:46;;;;;;;1.30;0.45;;;8.20;99.90;;;;;;5036119;28;20034;-71
2022/04/08 11:20:17;;;;;;;3.78;0.82;;;8.70;99.90;;;;;;5031339;28;20034;-72
2022/04/08 11:22:44;;;;;;;0.95;0.60;;;8.60;99.90;;;;;;5025618;28;20060;-74
2022/04/08 11:25:19;;;;;;;0.73;0.40;;;8.70;99.90;;;;;;5027776;28;20053;-70
2022/04/08 11:28:12;;;;;;;0.40;0.30;;;8.80;99.90;;;;;;5024988;28;20038;-72
2022/04/08 11:30:39;;;;;;;1.92;0.60;;;8.90;99.90;;;;;;5026972;28;20060;-70
2022/04/08 11:33:15;;;;;;;1.50;0.50;;;8.90;99.90;;;;;;5025573;28;20026;-73
2022/04/08 11:35:43;;;;;;;1.08;0.47;;;9.00;99.90;;;;;;5026839;28;20029;-73
2022/04/08 11:38:20;;;;;;;3.05;0.98;;;9.10;99.90;;;;;;5027200;28;20033;-71
2022/04/08 11:40:47;;;;;;;1.83;1.05;;;9.30;99.90;;;;;;5026475;28;20031;-72
2022/04/08 11:43:17;;;;;;;2.88;1.00;;;9.50;99.90;;;;;;5006197;28;20026;-73
2022/04/08 11:45:43;;;;;;;2.05;0.82;;;9.90;99.90;;;;;;5027791;28;20032;-72
2022/04/08 11:48:19;;;;;;;1.95;0.73;;;10.10;99.90;;;;;;5027794;28;20038;-72
2022/04/08 11:50:45;;;;;;;4.13;1.02;;;10.30;99.90;;;;;;5027478;28;20029;-72
2022/04/08 11:53:16;;;;;;;2.05;0.68;;;10.20;99.90;;;;;;5027739;28;20022;-70
2022/04/08 11:56:04;;;;;;;2.85;1.40;;;10.40;99.90;;;;;;5027848;28;20026;-73
2022/04/08 11:58:31;;;;;;;5.65;1.02;;;10.50;99.90;;;;;;5037466;28;20021;-73
2022/04/08 12:01:03;;;;;;;4.03;0.90;;;10.40;99.90;;;;;;5048107;28;20465;-75
2022/04/08 12:03:32;;;;;;;1.65;1.02;;;10.50;99.90;;;;;;5030681;28;20022;-72
2022/04/08 12:06:01;;;;;;;5.43;0.73;;;10.60;99.90;;;;;;5027372;28;20105;-73
2022/04/08 12:08:32;;;;;;;2.38;0.90;;;10.40;99.90;;;;;;5027067;28;20034;-74
2022/04/08 12:10:59;;;;;;;2.55;0.95;;;10.20;99.90;;;;;;5007778;28;20065;-72
2022/04/08 12:13:29;;;;;;;4.10;1.00;;;10.00;99.90;;;;;;5017084;28;20616;-73
2022/04/08 12:15:58;;;;;;;1.67;0.60;;;9.70;99.90;;;;;;5027736;28;20145;-72
2022/04/08 12:18:27;;;;;;;1.58;0.60;;;9.20;99.90;;;;;;5027426;28;20053;-72
2022/04/08 12:20:59;;;;;;;0.90;0.55;;;8.90;99.90;;;;;;5024005;28;20026;-71
2022/04/08 12:23:27;;;;;;;3.75;0.73;;;8.90;99.90;;;;;;5007349;28;20122;-71
2022/04/08 12:25:55;;;;;;;1.42;0.77;;;8.80;99.90;;;;;;5007597;28;20430;-74
2022/04/08 12:28:39;;;;;;;1.58;0.60;;;8.90;99.90;;;;;;5007908;28;20045;-71
2022/04/08 12:31:12;;;;;;;1.03;0.70;;;8.80;99.90;;;;;;5009771;28;20662;-72
2022/04/08 12:33:38;;;;;;;1.05;0.52;;;9.20;99.90;;;;;;5026895;28;20280;-72
2022/04/08 12:36:09;;;;;;;1.30;0.70;;;9.80;99.90;;;;;;5025200;28;20042;-71
2022/04/08 12:38:38;;;;;;;1.42;0.30;;;10.30;99.90;;;;;;5016917;28;20073;-71
2022/04/08 12:41:05;;;;;;;0.70;0.28;;;10.80;99.90;;;;;;5011447;28;20026;-73
2022/04/08 12:43:32;;;;;;;0.38;0.28;;;11.10;99.90;;;;;;5027316;28;20081;-74
2022/04/08 12:46:00;;;;;;;2.63;0.65;;;11.50;99.90;;;;;;5008978;28;20034;-72
2022/04/08 12:48:25;;;;;;;3.63;0.90;;;11.80;99.90;;;;;;5026216;28;20030;-71
2022/04/08 12:50:52;;;;;;;6.20;0.82;;;11.90;99.90;;;;;;5005559;28;20201;-74
2022/04/08 12:53:17;;;;;;;1.70;0.45;;;12.10;99.90;;;;;;5006408;28;20022;-72
2022/04/08 12:55:43;;;;;;;6.30;0.57;;;12.40;99.90;;;;;;5007525;28;20045;-72
2022/04/08 12:58:09;;;;;;;1.70;0.70;;;12.50;99.90;;;;;;5007259;28;20034;-71
2022/04/08 13:00:34;;;;;;;0.68;0.20;;;12.70;99.90;;;;;;5007302;28;20030;-73